Time;durP1;ratioP1;P1;durP2;ratioP2;P2;SDS_P1;SDS_P2;PMS_P1;PMS_P2;Temp;Humidity;BMP_temperature;BMP_pressure;BME280_temperature;BME280_humidity;BME280_pressure;Samples;Min_cycle;Max_cycle;Signal;HPM_P1;HPM_P2
2024/01/26 00:00:40;;;;;;;0.20;0.20;;;;;;;;;;6241754;28;20064;-79
2024/01/26 00:03:40;;;;;;;0.20;0.20;;;;;;;;;;6223256;28;20079;-79
2024/01/26 00:06:40;;;;;;;0.20;0.20;;;;;;;;;;6242457;28;20082;-79
2024/01/26 00:09:41;;;;;;;0.20;0.20;;;;;;;;;;6242595;28;20026;-79
2024/01/26 00:12:41;;;;;;;0.20;0.20;;;;;;;;;;6224052;28;20025;-79
2024/01/26 00:15:45;;;;;;;0.20;0.20;;;;;;;;;;6242172;28;20017;-79
2024/01/26 00:18:46;;;;;;;0.20;0.20;;;;;;;;;;6241851;28;20057;-79
2024/01/26 00:21:46;;;;;;;0.20;0.20;;;;;;;;;;6242902;28;20021;-79
2024/01/26 00:24:46;;;;;;;0.20;0.20;;;;;;;;;;6242148;28;20045;-79
2024/01/26 00:27:46;;;;;;;0.20;0.20;;;;;;;;;;6223906;28;20017;-80
2024/01/26 00:30:46;;;;;;;0.20;0.20;;;;;;;;;;6227705;28;20017;-79
2024/01/26 00:33:47;;;;;;;0.20;0.20;;;;;;;;;;6225007;28;20388;-79
2024/01/26 00:36:47;;;;;;;0.20;0.20;;;;;;;;;;6255055;28;20021;-79
2024/01/26 00:39:47;;;;;;;0.20;0.20;;;;;;;;;;6223807;28;20025;-78
2024/01/26 00:42:48;;;;;;;0.20;0.20;;;;;;;;;;6246184;28;20021;-79
2024/01/26 00:45:49;;;;;;;0.20;0.20;;;;;;;;;;6246933;28;20122;-78
2024/01/26 00:48:49;;;;;;;0.20;0.20;;;;;;;;;;6246583;28;20054;-78
2024/01/26 00:51:49;;;;;;;0.20;0.20;;;;;;;;;;6246576;28;20061;-78
2024/01/26 00:54:49;;;;;;;0.20;0.20;;;;;;;;;;6246659;28;20032;-78
2024/01/26 00:57:50;;;;;;;0.20;0.20;;;;;;;;;;6246457;28;20033;-79
2024/01/26 01:00:50;;;;;;;0.20;0.20;;;;;;;;;;6245914;28;20032;-79
2024/01/26 01:03:50;;;;;;;0.20;0.20;;;;;;;;;;6246093;28;20079;-79
2024/01/26 01:06:52;;;;;;;0.20;0.20;;;;;;;;;;6219584;28;20029;-79
2024/01/26 01:09:52;;;;;;;0.20;0.20;;;;;;;;;;6246421;28;20667;-79
2024/01/26 01:12:52;;;;;;;0.20;0.20;;;;;;;;;;6246004;28;20022;-79
2024/01/26 01:15:53;;;;;;;0.20;0.20;;;;;;;;;;6243528;28;20030;-79
2024/01/26 01:18:53;;;;;;;0.20;0.20;;;;;;;;;;6260315;28;20021;-80
2024/01/26 01:21:54;;;;;;;0.20;0.20;;;;;;;;;;6245683;28;20022;-80
2024/01/26 01:24:54;;;;;;;0.20;0.20;;;;;;;;;;6228540;28;20131;-80
2024/01/26 01:27:54;;;;;;;0.20;0.20;;;;;;;;;;6238060;28;20018;-79
2024/01/26 01:30:54;;;;;;;0.20;0.20;;;;;;;;;;6245967;28;20029;-79
2024/01/26 01:33:55;;;;;;;0.20;0.20;;;;;;;;;;6246482;28;20036;-80
2024/01/26 01:36:55;;;;;;;0.20;0.20;;;;;;;;;;6245707;28;20026;-79
2024/01/26 01:39:55;;;;;;;0.20;0.20;;;;;;;;;;6235127;28;20116;-79
2024/01/26 01:42:55;;;;;;;0.20;0.20;;;;;;;;;;6237250;28;20041;-80
2024/01/26 01:45:56;;;;;;;0.20;0.20;;;;;;;;;;6244859;28;20032;-80
2024/01/26 01:48:56;;;;;;;0.20;0.20;;;;;;;;;;6217729;28;20046;-81
2024/01/26 01:51:59;;;;;;;0.20;0.20;;;;;;;;;;6197248;28;20034;-80
2024/01/26 01:55:00;;;;;;;0.20;0.20;;;;;;;;;;6214987;28;20021;-80
2024/01/26 01:58:00;;;;;;;0.20;0.20;;;;;;;;;;6202741;28;20495;-80
2024/01/26 02:01:00;;;;;;;0.20;0.20;;;;;;;;;;6220921;28;20037;-80
2024/01/26 02:04:02;;;;;;;0.20;0.20;;;;;;;;;;6220034;28;20298;-80
2024/01/26 02:07:02;;;;;;;;;;;;;;;;;;6219887;28;20028;-80
2024/01/26 02:10:04;;;;;;;0.20;0.20;;;;;;;;;;6220277;28;19905;-80
2024/01/26 02:13:04;;;;;;;0.20;0.20;;;;;;;;;;6220417;28;20061;-80
2024/01/26 02:16:04;;;;;;;0.20;0.20;;;;;;;;;;6219212;28;20038;-80
2024/01/26 02:19:04;;;;;;;0.20;0.20;;;;;;;;;;6218840;28;20399;-81
2024/01/26 02:22:05;;;;;;;0.20;0.20;;;;;;;;;;6212620;28;20034;-80
2024/01/26 02:25:05;;;;;;;0.20;0.20;;;;;;;;;;6220561;28;20061;-80
2024/01/26 02:28:06;;;;;;;0.20;0.20;;;;;;;;;;6219413;28;20021;-80
2024/01/26 02:31:06;;;;;;;0.20;0.20;;;;;;;;;;6205990;28;20105;-80
2024/01/26 02:34:12;;;;;;;0.10;0.10;;;;;;;;;;6219006;28;20029;-80
2024/01/26 02:37:12;;;;;;;0.20;0.20;;;;;;;;;;6219102;28;20467;-80
2024/01/26 02:40:13;;;;;;;0.20;0.20;;;;;;;;;;6215352;28;20021;-80
2024/01/26 02:43:13;;;;;;;0.20;0.20;;;;;;;;;;6219245;28;20468;-80
2024/01/26 02:46:13;;;;;;;0.10;0.10;;;;;;;;;;6217142;28;20490;-80
2024/01/26 02:49:14;;;;;;;0.20;0.20;;;;;;;;;;6236754;28;20040;-80
2024/01/26 02:52:14;;;;;;;0.20;0.20;;;;;;;;;;6244460;28;20036;-81
2024/01/26 02:55:15;;;;;;;0.20;0.20;;;;;;;;;;6243543;28;20025;-81
2024/01/26 02:58:15;;;;;;;0.10;0.10;;;;;;;;;;6225317;28;20566;-80
2024/01/26 03:01:16;;;;;;;0.10;0.10;;;;;;;;;;6226988;28;20021;-80
2024/01/26 03:04:18;;;;;;;0.20;0.20;;;;;;;;;;6256202;28;20026;-80
2024/01/26 03:07:19;;;;;;;0.20;0.20;;;;;;;;;;6243812;28;20092;-81
2024/01/26 03:10:19;;;;;;;0.20;0.20;;;;;;;;;;6248990;28;20413;-81
2024/01/26 03:13:19;;;;;;;0.10;0.10;;;;;;;;;;6243894;28;20029;-81
2024/01/26 03:16:19;;;;;;;0.17;0.17;;;;;;;;;;6243215;28;20022;-80
2024/01/26 03:19:20;;;;;;;0.20;0.20;;;;;;;;;;6223343;28;20468;-80
2024/01/26 03:22:20;;;;;;;0.10;0.10;;;;;;;;;;6242706;28;20017;-80
2024/01/26 03:25:20;;;;;;;0.20;0.20;;;;;;;;;;6243003;28;20068;-81
2024/01/26 03:28:20;;;;;;;0.20;0.20;;;;;;;;;;6242488;28;20464;-81
2024/01/26 03:31:21;;;;;;;0.10;0.10;;;;;;;;;;6243022;28;20061;-81
2024/01/26 03:34:21;;;;;;;0.20;0.20;;;;;;;;;;6225620;28;20029;-80
2024/01/26 03:37:22;;;;;;;0.20;0.20;;;;;;;;;;6241829;28;20014;-81
2024/01/26 03:40:24;;;;;;;0.20;0.20;;;;;;;;;;6242104;28;20506;-81
2024/01/26 03:43:24;;;;;;;0.20;0.20;;;;;;;;;;6242636;28;20090;-81
2024/01/26 03:46:25;;;;;;;0.20;0.20;;;;;;;;;;6242353;28;20029;-80
2024/01/26 03:49:25;;;;;;;0.13;0.13;;;;;;;;;;6240044;28;20073;-81
2024/01/26 03:52:25;;;;;;;0.20;0.20;;;;;;;;;;6241621;28;20021;-81
2024/01/26 03:55:25;;;;;;;0.20;0.20;;;;;;;;;;6242461;28;20049;-80
2024/01/26 03:58:25;;;;;;;0.20;0.20;;;;;;;;;;6255739;28;20017;-81
2024/01/26 04:01:26;;;;;;;0.20;0.20;;;;;;;;;;6242787;28;20029;-80
2024/01/26 04:04:26;;;;;;;0.20;0.20;;;;;;;;;;6242088;28;20096;-81
2024/01/26 04:07:26;;;;;;;0.20;0.20;;;;;;;;;;6242309;28;20173;-80
2024/01/26 04:10:26;;;;;;;0.20;0.20;;;;;;;;;;6241960;28;20373;-81
2024/01/26 04:13:27;;;;;;;0.20;0.20;;;;;;;;;;6242514;28;20028;-80
2024/01/26 04:16:27;;;;;;;0.20;0.20;;;;;;;;;;6201537;28;20025;-81
2024/01/26 04:19:27;;;;;;;0.20;0.20;;;;;;;;;;6233967;28;20038;-80
2024/01/26 04:22:27;;;;;;;0.20;0.20;;;;;;;;;;6242999;28;20105;-81
2024/01/26 04:25:28;;;;;;;0.20;0.20;;;;;;;;;;6255962;28;20075;-81
2024/01/26 04:28:28;;;;;;;0.20;0.20;;;;;;;;;;6241045;28;20013;-81
2024/01/26 04:31:28;;;;;;;0.10;0.10;;;;;;;;;;6241520;28;20024;-80
2024/01/26 04:34:28;;;;;;;0.20;0.20;;;;;;;;;;6241047;28;20053;-80
2024/01/26 04:37:29;;;;;;;0.20;0.20;;;;;;;;;;6242114;28;20100;-80
2024/01/26 04:40:29;;;;;;;0.20;0.20;;;;;;;;;;6238154;28;20026;-81
2024/01/26 04:43:32;;;;;;;0.20;0.20;;;;;;;;;;6240965;28;20017;-80
2024/01/26 04:46:32;;;;;;;0.20;0.20;;;;;;;;;;6236792;28;20226;-81
2024/01/26 04:49:33;;;;;;;0.13;0.13;;;;;;;;;;6235189;28;20562;-80
2024/01/26 04:52:33;;;;;;;0.20;0.20;;;;;;;;;;6239713;28;20048;-80
2024/01/26 04:55:33;;;;;;;0.20;0.20;;;;;;;;;;6241466;28;20017;-81
2024/01/26 04:58:33;;;;;;;0.20;0.20;;;;;;;;;;6228678;28;20040;-81
2024/01/26 05:01:34;;;;;;;0.10;0.10;;;;;;;;;;6242251;28;20484;-80
2024/01/26 05:04:34;;;;;;;0.20;0.20;;;;;;;;;;6241728;28;20009;-80
2024/01/26 05:07:34;;;;;;;0.20;0.20;;;;;;;;;;6234481;28;20072;-80
2024/01/26 05:10:34;;;;;;;0.20;0.20;;;;;;;;;;6218869;28;20065;-81
2024/01/26 05:13:34;;;;;;;0.20;0.20;;;;;;;;;;6221240;28;20015;-80
2024/01/26 05:16:35;;;;;;;0.20;0.20;;;;;;;;;;6232214;28;20468;-80
2024/01/26 05:19:35;;;;;;;0.20;0.20;;;;;;;;;;6232999;28;20022;-80
2024/01/26 05:22:35;;;;;;;0.20;0.20;;;;;;;;;;6235962;28;20005;-80
2024/01/26 05:25:35;;;;;;;0.20;0.20;;;;;;;;;;6240800;28;20521;-79
2024/01/26 05:28:36;;;;;;;0.10;0.10;;;;;;;;;;6225846;28;20049;-78
2024/01/26 05:31:39;;;;;;;0.20;0.20;;;;;;;;;;6237592;28;20009;-78
2024/01/26 05:34:39;;;;;;;0.20;0.20;;;;;;;;;;6243407;28;20017;-78
2024/01/26 05:37:39;;;;;;;0.20;0.20;;;;;;;;;;6234701;28;20040;-78
2024/01/26 05:40:40;;;;;;;0.20;0.20;;;;;;;;;;6221088;28;20097;-78
2024/01/26 05:43:40;;;;;;;0.20;0.20;;;;;;;;;;6222730;28;20009;-78
2024/01/26 05:46:40;;;;;;;0.20;0.20;;;;;;;;;;6234820;28;20018;-78
2024/01/26 05:49:40;;;;;;;0.20;0.20;;;;;;;;;;6230983;28;20124;-78
2024/01/26 05:52:41;;;;;;;0.20;0.20;;;;;;;;;;6245237;28;20024;-78
2024/01/26 05:55:41;;;;;;;0.20;0.20;;;;;;;;;;6245944;28;20464;-80
2024/01/26 05:58:41;;;;;;;0.20;0.20;;;;;;;;;;6239227;28;20018;-80
2024/01/26 06:01:41;;;;;;;0.20;0.20;;;;;;;;;;6237470;28;20018;-80
2024/01/26 06:04:42;;;;;;;0.20;0.20;;;;;;;;;;6244528;28;20390;-80
2024/01/26 06:07:42;;;;;;;0.20;0.20;;;;;;;;;;6238459;28;20026;-78
2024/01/26 06:10:42;;;;;;;0.10;0.10;;;;;;;;;;6238316;28;20026;-78
2024/01/26 06:13:43;;;;;;;0.20;0.20;;;;;;;;;;6244551;28;20037;-79
2024/01/26 06:16:46;;;;;;;0.20;0.20;;;;;;;;;;6204939;28;20026;-79
2024/01/26 06:19:46;;;;;;;0.20;0.20;;;;;;;;;;6241453;28;20030;-79
2024/01/26 06:22:47;;;;;;;0.20;0.20;;;;;;;;;;6244285;28;20087;-79
2024/01/26 06:25:48;;;;;;;0.20;0.20;;;;;;;;;;6226349;28;20040;-79
2024/01/26 06:28:48;;;;;;;0.20;0.20;;;;;;;;;;6244617;28;20017;-79
2024/01/26 06:31:48;;;;;;;0.20;0.20;;;;;;;;;;6240172;28;20025;-79
2024/01/26 06:34:48;;;;;;;0.20;0.20;;;;;;;;;;6235092;28;20080;-79
2024/01/26 06:37:49;;;;;;;0.20;0.20;;;;;;;;;;6227354;28;20120;-79
2024/01/26 06:40:49;;;;;;;0.20;0.20;;;;;;;;;;6240410;28;20030;-79
2024/01/26 06:43:52;;;;;;;0.20;0.20;;;;;;;;;;6241112;28;20030;-79
2024/01/26 06:46:52;;;;;;;0.20;0.20;;;;;;;;;;6234570;28;20029;-79
2024/01/26 06:49:53;;;;;;;0.20;0.20;;;;;;;;;;6207167;28;20045;-79
2024/01/26 06:52:54;;;;;;;0.20;0.20;;;;;;;;;;6217743;28;20026;-79
2024/01/26 06:55:55;;;;;;;0.20;0.20;;;;;;;;;;6242387;28;20025;-79
2024/01/26 06:58:55;;;;;;;0.10;0.10;;;;;;;;;;6238959;28;20067;-79
2024/01/26 07:01:55;;;;;;;0.20;0.20;;;;;;;;;;6242057;28;20075;-79
2024/01/26 07:04:55;;;;;;;0.20;0.20;;;;;;;;;;6224926;28;20025;-79
2024/01/26 07:07:56;;;;;;;0.20;0.20;;;;;;;;;;6243508;28;20596;-79
2024/01/26 07:10:56;;;;;;;0.20;0.20;;;;;;;;;;6219551;28;20028;-79
2024/01/26 07:13:57;;;;;;;0.20;0.20;;;;;;;;;;6241278;28;20013;-79
2024/01/26 07:16:57;;;;;;;0.20;0.20;;;;;;;;;;6238584;28;20032;-81
2024/01/26 07:19:57;;;;;;;0.10;0.10;;;;;;;;;;6238127;28;20064;-81
2024/01/26 07:22:57;;;;;;;0.20;0.20;;;;;;;;;;6240277;28;20022;-82
2024/01/26 07:25:58;;;;;;;0.20;0.20;;;;;;;;;;6236984;28;20400;-82
2024/01/26 07:28:58;;;;;;;0.20;0.20;;;;;;;;;;6242166;28;20025;-82
2024/01/26 07:31:58;;;;;;;0.20;0.20;;;;;;;;;;6242458;28;20017;-82
2024/01/26 07:34:58;;;;;;;0.13;0.13;;;;;;;;;;6218741;28;20499;-82
2024/01/26 07:37:59;;;;;;;0.20;0.20;;;;;;;;;;6236989;28;20384;-82
2024/01/26 07:40:59;;;;;;;0.20;0.20;;;;;;;;;;6242796;28;20017;-82
2024/01/26 07:44:02;;;;;;;0.20;0.20;;;;;;;;;;6228967;28;20026;-83
2024/01/26 07:47:02;;;;;;;0.20;0.20;;;;;;;;;;6235418;28;20025;-80
2024/01/26 07:50:03;;;;;;;0.20;0.20;;;;;;;;;;6238332;28;20041;-80
2024/01/26 07:53:03;;;;;;;0.20;0.20;;;;;;;;;;6242150;28;20396;-80
2024/01/26 07:56:04;;;;;;;0.20;0.20;;;;;;;;;;6224537;28;20057;-80
2024/01/26 07:59:04;;;;;;;0.20;0.20;;;;;;;;;;6222994;28;20032;-80
2024/01/26 08:02:04;;;;;;;0.20;0.20;;;;;;;;;;6233123;28;20037;-80
2024/01/26 08:05:05;;;;;;;0.20;0.20;;;;;;;;;;6224103;28;20072;-80
2024/01/26 08:08:07;;;;;;;0.20;0.20;;;;;;;;;;6200578;28;20617;-80
2024/01/26 08:11:07;;;;;;;0.20;0.20;;;;;;;;;;6232144;28;20032;-80
2024/01/26 08:14:07;;;;;;;0.10;0.10;;;;;;;;;;6238901;28;20029;-80
2024/01/26 08:17:08;;;;;;;0.20;0.20;;;;;;;;;;6241164;28;20025;-80
2024/01/26 08:20:08;;;;;;;0.20;0.20;;;;;;;;;;6218385;28;20105;-80
2024/01/26 08:23:08;;;;;;;0.20;0.20;;;;;;;;;;6239005;28;20030;-80
2024/01/26 08:26:10;;;;;;;0.10;0.10;;;;;;;;;;6230261;28;20022;-82
2024/01/26 08:29:10;;;;;;;0.20;0.20;;;;;;;;;;6234328;28;20109;-82
2024/01/26 08:32:10;;;;;;;0.20;0.20;;;;;;;;;;6228081;28;20092;-83
2024/01/26 08:35:11;;;;;;;0.20;0.20;;;;;;;;;;6223619;28;20087;-83
2024/01/26 08:38:11;;;;;;;0.10;0.10;;;;;;;;;;6239189;28;20043;-82
2024/01/26 08:41:12;;;;;;;0.20;0.20;;;;;;;;;;6232016;28;20460;-83
2024/01/26 08:44:13;;;;;;;0.20;0.20;;;;;;;;;;6241778;28;20388;-83
2024/01/26 08:47:13;;;;;;;0.20;0.20;;;;;;;;;;6234484;28;20112;-82
2024/01/26 08:50:13;;;;;;;0.20;0.20;;;;;;;;;;6241918;28;20116;-83
2024/01/26 08:53:13;;;;;;;0.20;0.20;;;;;;;;;;6245701;28;20091;-83
2024/01/26 08:56:15;;;;;;;0.20;0.20;;;;;;;;;;6244684;28;20028;-82
2024/01/26 08:59:15;;;;;;;0.20;0.20;;;;;;;;;;6224665;28;20044;-82
2024/01/26 09:02:15;;;;;;;0.20;0.20;;;;;;;;;;6223985;28;20678;-83
2024/01/26 09:05:15;;;;;;;0.20;0.20;;;;;;;;;;6240393;28;20025;-83
2024/01/26 09:08:15;;;;;;;0.10;0.10;;;;;;;;;;6224153;28;20018;-83
2024/01/26 09:11:16;;;;;;;0.20;0.20;;;;;;;;;;6229290;28;20030;-83
2024/01/26 09:14:16;;;;;;;0.10;0.10;;;;;;;;;;6245354;28;20052;-83
2024/01/26 09:17:17;;;;;;;0.20;0.20;;;;;;;;;;6238953;28;20030;-82
2024/01/26 09:20:17;;;;;;;0.13;0.13;;;;;;;;;;6243090;28;20034;-83
2024/01/26 09:23:19;;;;;;;0.20;0.20;;;;;;;;;;6221099;28;20526;-83
2024/01/26 09:26:21;;;;;;;0.20;0.20;;;;;;;;;;6242640;28;20542;-83
2024/01/26 09:29:22;;;;;;;0.20;0.20;;;;;;;;;;6245160;28;20479;-82
2024/01/26 09:32:23;;;;;;;0.20;0.20;;;;;;;;;;6245880;28;20087;-82
2024/01/26 09:35:23;;;;;;;0.20;0.20;;;;;;;;;;6243101;28;20056;-82
2024/01/26 09:38:24;;;;;;;0.20;0.20;;;;;;;;;;6236077;28;20068;-82
2024/01/26 09:41:24;;;;;;;0.20;0.20;;;;;;;;;;6231574;28;20129;-82
2024/01/26 09:44:25;;;;;;;0.20;0.20;;;;;;;;;;6236265;28;20028;-83
2024/01/26 09:47:25;;;;;;;0.10;0.10;;;;;;;;;;6239280;28;20064;-82
2024/01/26 09:50:26;;;;;;;0.20;0.20;;;;;;;;;;6231054;28;20086;-82
2024/01/26 09:53:26;;;;;;;0.20;0.20;;;;;;;;;;6233258;28;20052;-83
2024/01/26 09:56:27;;;;;;;0.20;0.20;;;;;;;;;;6227828;28;20430;-82
2024/01/26 09:59:27;;;;;;;0.20;0.20;;;;;;;;;;6235887;28;20018;-82
2024/01/26 10:02:27;;;;;;;0.20;0.20;;;;;;;;;;6229948;28;20018;-83
2024/01/26 10:05:27;;;;;;;0.20;0.20;;;;;;;;;;6237576;28;20022;-80
2024/01/26 10:08:36;;;;;;;0.20;0.20;;;;;;;;;;6244930;28;20049;-79
2024/01/26 10:11:37;;;;;;;0.20;0.20;;;;;;;;;;6244443;28;20037;-79
2024/01/26 10:14:40;;;;;;;0.13;0.13;;;;;;;;;;6226357;28;20156;-79
2024/01/26 10:17:43;;;;;;;0.20;0.20;;;;;;;;;;6224683;28;20032;-79
2024/01/26 10:20:43;;;;;;;0.20;0.20;;;;;;;;;;6232691;28;20699;-79
2024/01/26 10:23:43;;;;;;;0.20;0.20;;;;;;;;;;6244657;28;20037;-79
2024/01/26 10:26:45;;;;;;;0.20;0.20;;;;;;;;;;6226266;28;20009;-80
2024/01/26 10:29:45;;;;;;;;;;;;;;;;;;6243706;28;20152;-80
2024/01/26 10:32:46;;;;;;;0.15;0.15;;;;;;;;;;6239193;28;20344;-77
2024/01/26 10:35:47;;;;;;;0.10;0.10;;;;;;;;;;6244619;28;20025;-77
2024/01/26 10:38:48;;;;;;;0.10;0.10;;;;;;;;;;6241925;28;20354;-77
2024/01/26 10:41:49;;;;;;;0.10;0.10;;;;;;;;;;6242829;28;20500;-77
2024/01/26 10:44:51;;;;;;;0.10;0.10;;;;;;;;;;6216269;28;20061;-77
2024/01/26 10:47:52;;;;;;;0.10;0.10;;;;;;;;;;6237523;28;20510;-78
2024/01/26 10:50:54;;;;;;;0.10;0.10;;;;;;;;;;6236252;28;20104;-78
2024/01/26 10:53:54;;;;;;;0.15;0.15;;;;;;;;;;6238861;28;20022;-78
2024/01/26 10:56:54;;;;;;;0.10;0.10;;;;;;;;;;6238873;28;20017;-77
2024/01/26 10:59:55;;;;;;;0.20;0.20;;;;;;;;;;6237619;28;20048;-76
2024/01/26 11:02:55;;;;;;;0.10;0.10;;;;;;;;;;6232609;28;20503;-77
2024/01/26 11:05:55;;;;;;;0.20;0.20;;;;;;;;;;6243576;28;20391;-77
2024/01/26 11:08:58;;;;;;;0.10;0.10;;;;;;;;;;6243221;28;20426;-77
2024/01/26 11:11:59;;;;;;;0.20;0.20;;;;;;;;;;6233549;28;20500;-77
2024/01/26 11:15:08;;;;;;;0.10;0.10;;;;;;;;;;6224026;28;20018;-77
2024/01/26 11:18:19;;;;;;;0.10;0.10;;;;;;;;;;6243339;28;20017;-77
2024/01/26 11:21:19;;;;;;;0.20;0.20;;;;;;;;;;6209351;28;20046;-77
2024/01/26 11:24:19;;;;;;;0.10;0.10;;;;;;;;;;6234447;28;20013;-76
2024/01/26 11:27:20;;;;;;;0.20;0.20;;;;;;;;;;6233600;28;20045;-78
2024/01/26 11:30:23;;;;;;;0.20;0.20;;;;;;;;;;6222472;28;20548;-78
2024/01/26 11:33:24;;;;;;;0.10;0.10;;;;;;;;;;6227790;28;20030;-78
2024/01/26 11:36:24;;;;;;;0.10;0.10;;;;;;;;;;6230330;28;20476;-78
2024/01/26 11:39:24;;;;;;;0.20;0.20;;;;;;;;;;6228366;28;20033;-78
2024/01/26 11:42:24;;;;;;;0.20;0.20;;;;;;;;;;6228266;28;20132;-78
2024/01/26 11:45:34;;;;;;;0.20;0.20;;;;;;;;;;6238180;28;20018;-78
2024/01/26 11:48:34;;;;;;;0.20;0.20;;;;;;;;;;6218882;28;20047;-79
2024/01/26 11:51:34;;;;;;;0.10;0.10;;;;;;;;;;6239011;28;20017;-78
2024/01/26 11:54:35;;;;;;;0.10;0.10;;;;;;;;;;6239418;28;20018;-77
2024/01/26 11:57:35;;;;;;;0.17;0.17;;;;;;;;;;6224294;28;20036;-78
2024/01/26 12:00:36;;;;;;;0.10;0.10;;;;;;;;;;6239767;28;20075;-78
2024/01/26 12:03:36;;;;;;;0.10;0.10;;;;;;;;;;6223852;28;20038;-78
2024/01/26 12:06:36;;;;;;;0.17;0.17;;;;;;;;;;6242136;28;20484;-78
2024/01/26 12:09:36;;;;;;;0.13;0.13;;;;;;;;;;6234697;28;20329;-78
2024/01/26 12:12:37;;;;;;;0.20;0.20;;;;;;;;;;6233231;28;20033;-78
2024/01/26 12:15:41;;;;;;;0.10;0.10;;;;;;;;;;6233946;28;20057;-78
2024/01/26 12:18:46;;;;;;;0.10;0.10;;;;;;;;;;6240557;28;20032;-78
2024/01/26 12:21:46;;;;;;;0.20;0.20;;;;;;;;;;6224343;28;20726;-78
2024/01/26 12:24:47;;;;;;;0.10;0.10;;;;;;;;;;6235857;28;20021;-78
2024/01/26 12:27:47;;;;;;;0.20;0.20;;;;;;;;;;6240506;28;20024;-78
2024/01/26 12:30:48;;;;;;;0.20;0.20;;;;;;;;;;6247023;28;20024;-78
2024/01/26 12:33:48;;;;;;;0.20;0.20;;;;;;;;;;6243257;28;20029;-78
2024/01/26 12:36:48;;;;;;;0.20;0.20;;;;;;;;;;6238114;28;20502;-77
2024/01/26 12:39:49;;;;;;;0.10;0.10;;;;;;;;;;6254144;28;20083;-78
2024/01/26 12:42:49;;;;;;;0.10;0.10;;;;;;;;;;6251154;28;20033;-78
2024/01/26 12:45:51;;;;;;;0.10;0.10;;;;;;;;;;6224991;28;20560;-78
2024/01/26 12:48:51;;;;;;;0.10;0.10;;;;;;;;;;6234694;28;20045;-78
2024/01/26 12:51:52;;;;;;;0.10;0.10;;;;;;;;;;6243637;28;20053;-78
2024/01/26 12:54:55;;;;;;;0.10;0.10;;;;;;;;;;6243855;28;20018;-78
2024/01/26 12:57:55;;;;;;;0.10;0.10;;;;;;;;;;6227046;28;20044;-78
2024/01/26 13:00:56;;;;;;;0.10;0.10;;;;;;;;;;6236518;28;20038;-77
2024/01/26 13:03:56;;;;;;;0.10;0.10;;;;;;;;;;6226795;28;20436;-77
2024/01/26 13:06:57;;;;;;;0.10;0.10;;;;;;;;;;6236460;28;20113;-78
2024/01/26 13:09:58;;;;;;;0.10;0.10;;;;;;;;;;6243715;28;20474;-78
2024/01/26 13:12:58;;;;;;;0.10;0.10;;;;;;;;;;6239673;28;20033;-76
2024/01/26 13:15:59;;;;;;;0.10;0.10;;;;;;;;;;6242344;28;20021;-76
2024/01/26 13:18:59;;;;;;;0.17;0.17;;;;;;;;;;6236502;28;20036;-75
2024/01/26 13:21:59;;;;;;;0.10;0.10;;;;;;;;;;6239719;28;20359;-75
2024/01/26 13:25:00;;;;;;;0.10;0.10;;;;;;;;;;6238311;28;20025;-75
2024/01/26 13:28:00;;;;;;;0.10;0.10;;;;;;;;;;6240163;28;20096;-76
2024/01/26 13:31:00;;;;;;;0.10;0.10;;;;;;;;;;6242942;28;20076;-76
2024/01/26 13:34:00;;;;;;;0.10;0.10;;;;;;;;;;6243576;28;20018;-76
2024/01/26 13:37:01;;;;;;;0.10;0.10;;;;;;;;;;6226187;28;20060;-78
2024/01/26 13:40:04;;;;;;;0.20;0.20;;;;;;;;;;6241585;28;20057;-78
2024/01/26 13:43:05;;;;;;;0.20;0.20;;;;;;;;;;6242073;28;20025;-78
2024/01/26 13:46:06;;;;;;;0.10;0.10;;;;;;;;;;6242263;28;20586;-78
2024/01/26 13:49:08;;;;;;;0.20;0.20;;;;;;;;;;6199143;28;1168801;-78
2024/01/26 13:52:08;;;;;;;0.20;0.20;;;;;;;;;;6242606;28;20399;-77
2024/01/26 13:55:08;;;;;;;0.20;0.20;;;;;;;;;;6226807;28;20025;-78
2024/01/26 13:58:08;;;;;;;0.20;0.20;;;;;;;;;;6240226;28;20092;-78
2024/01/26 14:01:09;;;;;;;0.10;0.10;;;;;;;;;;6235103;28;20479;-78
2024/01/26 14:04:09;;;;;;;0.20;0.20;;;;;;;;;;6224871;28;20022;-78
2024/01/26 14:07:09;;;;;;;0.20;0.20;;;;;;;;;;6226236;28;20371;-77
2024/01/26 14:10:11;;;;;;;0.20;0.20;;;;;;;;;;6235700;28;20010;-77
2024/01/26 14:13:11;;;;;;;0.10;0.10;;;;;;;;;;6238645;28;20080;-77
2024/01/26 14:16:11;;;;;;;0.20;0.20;;;;;;;;;;6244151;28;20034;-77
2024/01/26 14:19:12;;;;;;;0.10;0.10;;;;;;;;;;6235348;28;20037;-76
2024/01/26 14:22:12;;;;;;;0.20;0.20;;;;;;;;;;6232961;28;20018;-77
2024/01/26 14:25:12;;;;;;;0.20;0.20;;;;;;;;;;6237887;28;20056;-77
2024/01/26 14:28:13;;;;;;;0.20;0.20;;;;;;;;;;6235435;28;20270;-77
2024/01/26 14:31:13;;;;;;;0.20;0.20;;;;;;;;;;6237860;28;20021;-77
2024/01/26 14:34:13;;;;;;;0.20;0.20;;;;;;;;;;6234436;28;20121;-77
2024/01/26 14:37:14;;;;;;;0.20;0.20;;;;;;;;;;6243240;28;20021;-77
2024/01/26 14:40:17;;;;;;;0.10;0.10;;;;;;;;;;6234035;28;20031;-77
2024/01/26 14:43:17;;;;;;;0.20;0.20;;;;;;;;;;6238608;28;20021;-79
2024/01/26 14:46:18;;;;;;;0.10;0.10;;;;;;;;;;6221040;28;20472;-75
2024/01/26 14:49:18;;;;;;;0.20;0.20;;;;;;;;;;6241197;28;20058;-75
2024/01/26 14:52:21;;;;;;;0.20;0.20;;;;;;;;;;6240809;28;20083;-77
2024/01/26 14:55:21;;;;;;;0.20;0.20;;;;;;;;;;6241257;28;20024;-78
2024/01/26 14:58:21;;;;;;;0.10;0.10;;;;;;;;;;6248941;28;20041;-78
2024/01/26 15:01:22;;;;;;;0.20;0.20;;;;;;;;;;6232475;28;20105;-77
2024/01/26 15:04:23;;;;;;;0.20;0.20;;;;;;;;;;6229557;28;20022;-78
2024/01/26 15:07:23;;;;;;;0.20;0.20;;;;;;;;;;6242509;28;20097;-78
2024/01/26 15:10:23;;;;;;;0.20;0.20;;;;;;;;;;6242378;28;20095;-78
2024/01/26 15:13:23;;;;;;;0.10;0.10;;;;;;;;;;6240368;28;20029;-78
2024/01/26 15:16:26;;;;;;;0.20;0.20;;;;;;;;;;6242489;28;20021;-78
2024/01/26 15:19:26;;;;;;;0.20;0.20;;;;;;;;;;6228947;28;20075;-78
2024/01/26 15:22:27;;;;;;;0.20;0.20;;;;;;;;;;6224227;28;20447;-78
2024/01/26 15:25:27;;;;;;;0.20;0.20;;;;;;;;;;6227238;28;20022;-78
2024/01/26 15:28:27;;;;;;;0.20;0.20;;;;;;;;;;6242027;28;20392;-77
2024/01/26 15:31:27;;;;;;;0.20;0.20;;;;;;;;;;6242042;28;20503;-77
2024/01/26 15:34:28;;;;;;;0.20;0.20;;;;;;;;;;6237430;28;20030;-76
2024/01/26 15:37:28;;;;;;;0.20;0.20;;;;;;;;;;6242206;28;20045;-77
2024/01/26 15:40:29;;;;;;;0.20;0.20;;;;;;;;;;6239805;28;20028;-75
2024/01/26 15:43:29;;;;;;;0.20;0.20;;;;;;;;;;6243565;28;20047;-77
2024/01/26 15:46:30;;;;;;;0.20;0.20;;;;;;;;;;6242409;28;20039;-75
2024/01/26 15:49:30;;;;;;;0.20;0.20;;;;;;;;;;6231545;28;20488;-75
2024/01/26 15:52:31;;;;;;;0.20;0.20;;;;;;;;;;6242341;28;20040;-76
2024/01/26 15:55:31;;;;;;;0.20;0.20;;;;;;;;;;6240146;28;20033;-77
2024/01/26 15:58:31;;;;;;;0.20;0.20;;;;;;;;;;6241988;28;20024;-76
2024/01/26 16:01:33;;;;;;;0.20;0.20;;;;;;;;;;6249137;28;20021;-77
2024/01/26 16:04:33;;;;;;;0.20;0.20;;;;;;;;;;6227431;28;20025;-74
2024/01/26 16:07:33;;;;;;;0.20;0.20;;;;;;;;;;6238001;28;20036;-75
2024/01/26 16:10:40;;;;;;;0.20;0.20;;;;;;;;;;6222992;28;20047;-75
2024/01/26 16:13:40;;;;;;;0.20;0.20;;;;;;;;;;6248789;28;20075;-75
2024/01/26 16:16:43;;;;;;;0.20;0.20;;;;;;;;;;6234568;28;20037;-75
2024/01/26 16:19:44;;;;;;;0.20;0.20;;;;;;;;;;6234602;28;20116;-76
2024/01/26 16:22:44;;;;;;;0.13;0.13;;;;;;;;;;6237110;28;20022;-75
2024/01/26 16:25:44;;;;;;;0.20;0.20;;;;;;;;;;6239171;28;20021;-75
2024/01/26 16:28:44;;;;;;;0.20;0.20;;;;;;;;;;6250392;28;20403;-75
2024/01/26 16:31:45;;;;;;;0.20;0.20;;;;;;;;;;6252648;28;20049;-75
2024/01/26 16:34:45;;;;;;;0.10;0.10;;;;;;;;;;6239581;28;20025;-75
2024/01/26 16:37:46;;;;;;;0.20;0.20;;;;;;;;;;6243111;28;20120;-75
2024/01/26 16:40:46;;;;;;;0.20;0.20;;;;;;;;;;6232845;28;20033;-75
2024/01/26 16:43:46;;;;;;;0.20;0.20;;;;;;;;;;6240856;28;20017;-75
2024/01/26 16:46:47;;;;;;;0.20;0.20;;;;;;;;;;6238020;28;20143;-76
2024/01/26 16:49:48;;;;;;;0.20;0.20;;;;;;;;;;6240598;28;20060;-75
2024/01/26 16:52:48;;;;;;;0.20;0.20;;;;;;;;;;6227181;28;20150;-76
2024/01/26 16:55:49;;;;;;;0.20;0.20;;;;;;;;;;6240668;28;20488;-76
2024/01/26 16:58:49;;;;;;;0.20;0.20;;;;;;;;;;6249914;28;20203;-75
2024/01/26 17:01:50;;;;;;;0.20;0.20;;;;;;;;;;6239313;28;20102;-75
2024/01/26 17:04:50;;;;;;;0.20;0.20;;;;;;;;;;6238982;28;20389;-76
2024/01/26 17:07:51;;;;;;;0.20;0.20;;;;;;;;;;6241993;28;20036;-78
2024/01/26 17:10:51;;;;;;;0.20;0.20;;;;;;;;;;6227090;28;20857;-78
2024/01/26 17:13:51;;;;;;;0.20;0.20;;;;;;;;;;6254933;28;20029;-79
2024/01/26 17:16:53;;;;;;;0.20;0.20;;;;;;;;;;6239011;28;20437;-78
2024/01/26 17:19:54;;;;;;;0.20;0.20;;;;;;;;;;6233092;28;20025;-76
2024/01/26 17:22:54;;;;;;;0.20;0.20;;;;;;;;;;6233473;28;20026;-77
2024/01/26 17:25:55;;;;;;;0.20;0.20;;;;;;;;;;6239392;28;20419;-77
2024/01/26 17:28:55;;;;;;;0.20;0.20;;;;;;;;;;6245777;28;20087;-77
2024/01/26 17:31:59;;;;;;;0.10;0.10;;;;;;;;;;6245711;28;20030;-78
2024/01/26 17:34:59;;;;;;;0.20;0.20;;;;;;;;;;6243882;28;20017;-78
2024/01/26 17:37:59;;;;;;;0.20;0.20;;;;;;;;;;6236279;28;20041;-78
2024/01/26 17:41:00;;;;;;;0.20;0.20;;;;;;;;;;6245447;28;20515;-78
2024/01/26 17:44:00;;;;;;;0.20;0.20;;;;;;;;;;6227380;28;20091;-78
2024/01/26 17:47:00;;;;;;;0.20;0.20;;;;;;;;;;6252193;28;20041;-78
2024/01/26 17:50:01;;;;;;;0.20;0.20;;;;;;;;;;6252039;28;20020;-78
2024/01/26 17:53:01;;;;;;;0.20;0.20;;;;;;;;;;6248008;28;20479;-78
2024/01/26 17:56:05;;;;;;;0.10;0.10;;;;;;;;;;6249934;28;20037;-77
2024/01/26 17:59:06;;;;;;;0.20;0.20;;;;;;;;;;6227242;28;20112;-77
2024/01/26 18:02:07;;;;;;;0.20;0.20;;;;;;;;;;6244922;28;20021;-77